Time;durP1;ratioP1;P1;durP2;ratioP2;P2;SDS_P1;SDS_P2;PMS_P1;PMS_P2;Temp;Humidity;BMP_temperature;BMP_pressure;BME280_temperature;BME280_humidity;BME280_pressure;Samples;Min_cycle;Max_cycle;Signal;HPM_P1;HPM_P2
2023/05/03 00:00:25;;;;;;;14.05;10.18;;;;;;;;;;5030492;28;20139;-70
2023/05/03 00:02:52;;;;;;;15.30;10.32;;;;;;;;;;5012879;28;20049;-70
2023/05/03 00:05:18;;;;;;;14.63;10.50;;;;;;;;;;5008735;28;20053;-70
2023/05/03 00:07:45;;;;;;;17.73;11.23;;;;;;;;;;5004255;28;20048;-70
2023/05/03 00:10:15;;;;;;;16.67;11.77;;;;;;;;;;5016073;28;20414;-70
2023/05/03 00:12:42;;;;;;;17.25;11.40;;;;;;;;;;5017618;28;20053;-70
2023/05/03 00:15:09;;;;;;;16.20;11.52;;;;;;;;;;5009931;28;20045;-72
2023/05/03 00:17:35;;;;;;;13.45;10.70;;;;;;;;;;5018258;28;20102;-70
2023/05/03 00:20:03;;;;;;;13.65;10.18;;;;;;;;;;5018513;28;20514;-70
2023/05/03 00:22:29;;;;;;;13.80;9.88;;;;;;;;;;5019185;28;20080;-70
2023/05/03 00:24:55;;;;;;;12.18;9.38;;;;;;;;;;5018565;28;20076;-70
2023/05/03 00:27:21;;;;;;;10.32;8.40;;;;;;;;;;5011661;28;20054;-70
2023/05/03 00:29:51;;;;;;;13.35;9.07;;;;;;;;;;5029879;28;20045;-70
2023/05/03 00:32:16;;;;;;;13.38;9.80;;;;;;;;;;5018394;28;20189;-70
2023/05/03 00:34:41;;;;;;;12.35;9.50;;;;;;;;;;5018085;28;20199;-71
2023/05/03 00:37:08;;;;;;;15.93;10.45;;;;;;;;;;5018194;28;20091;-71
2023/05/03 00:39:33;;;;;;;13.70;9.80;;;;;;;;;;5013451;28;20053;-70
2023/05/03 00:42:00;;;;;;;15.15;8.85;;;;;;;;;;5031978;28;20096;-71
2023/05/03 00:44:26;;;;;;;11.63;8.63;;;;;;;;;;5027933;28;20039;-72
2023/05/03 00:46:52;;;;;;;12.00;9.23;;;;;;;;;;5034916;28;20064;-70
2023/05/03 00:49:18;;;;;;;11.95;8.85;;;;;;;;;;5005640;28;20050;-70
2023/05/03 00:51:43;;;;;;;12.02;9.02;;;;;;;;;;5029534;28;20505;-70
2023/05/03 00:54:10;;;;;;;13.65;9.93;;;;;;;;;;5017837;28;20052;-70
2023/05/03 00:56:37;;;;;;;14.85;9.55;;;;;;;;;;5011616;28;20045;-70
2023/05/03 00:59:04;;;;;;;12.13;9.40;;;;;;;;;;5010257;28;20132;-71
2023/05/03 01:01:31;;;;;;;14.50;10.27;;;;;;;;;;5033971;28;20104;-70
2023/05/03 01:03:59;;;;;;;15.60;10.18;;;;;;;;;;5019031;28;20561;-70
2023/05/03 01:06:38;;;;;;;17.73;10.90;;;;;;;;;;5017544;28;20087;-70
2023/05/03 01:09:36;;;;;;;15.23;9.98;;;;;;;;;;5015092;28;20076;-70
2023/05/03 01:12:11;;;;;;;14.43;10.32;;;;;;;;;;5005743;28;20053;-70
2023/05/03 01:15:05;;;;;;;12.00;8.90;;;;;;;;;;5016337;28;20057;-70
2023/05/03 01:17:35;;;;;;;11.90;8.93;;;;;;;;;;5010409;28;20041;-70
2023/05/03 01:20:10;;;;;;;13.90;9.93;;;;;;;;;;5015238;28;20049;-70
2023/05/03 01:22:49;;;;;;;16.65;9.35;;;;;;;;;;5014820;28;20046;-70
2023/05/03 01:25:15;;;;;;;15.55;9.68;;;;;;;;;;5021373;28;20045;-70
2023/05/03 01:27:41;;;;;;;19.33;11.23;;;;;;;;;;5017132;28;21028;-71
2023/05/03 01:30:11;;;;;;;14.90;11.77;;;;;;;;;;5009724;28;20423;-71
2023/05/03 01:32:50;;;;;;;17.73;11.52;;;;;;;;;;5032107;28;20049;-71
2023/05/03 01:35:43;;;;;;;20.40;13.90;;;;;;;;;;5005195;28;20050;-71
2023/05/03 01:38:09;;;;;;;25.83;15.77;;;;;;;;;;5020857;28;20045;-71
2023/05/03 01:40:45;;;;;;;26.98;17.58;;;;;;;;;;5017282;28;20077;-70
2023/05/03 01:43:14;;;;;;;23.40;15.73;;;;;;;;;;5019405;28;20049;-71
2023/05/03 01:45:41;;;;;;;25.67;16.75;;;;;;;;;;5014151;28;20089;-70
2023/05/03 01:48:11;;;;;;;24.23;15.63;;;;;;;;;;5016380;28;20431;-70
2023/05/03 01:50:37;;;;;;;23.73;15.32;;;;;;;;;;5008144;28;20863;-71
2023/05/03 01:53:02;;;;;;;20.08;14.35;;;;;;;;;;5034100;28;20173;-70
2023/05/03 01:55:28;;;;;;;20.40;13.55;;;;;;;;;;5036911;28;20061;-70
2023/05/03 01:57:53;;;;;;;18.25;12.20;;;;;;;;;;5036592;28;20053;-70
2023/05/03 02:00:19;;;;;;;15.00;11.88;;;;;;;;;;5010222;28;20049;-71
2023/05/03 02:02:45;;;;;;;17.55;11.98;;;;;;;;;;5028912;28;20049;-71
2023/05/03 02:05:11;;;;;;;14.85;11.50;;;;;;;;;;5035280;28;20069;-70
2023/05/03 02:07:37;;;;;;;15.48;11.63;;;;;;;;;;5037227;28;20151;-70
2023/05/03 02:10:06;;;;;;;15.98;11.50;;;;;;;;;;5006397;28;20580;-70
2023/05/03 02:12:31;;;;;;;15.20;10.57;;;;;;;;;;5022347;28;20045;-70
2023/05/03 02:14:57;;;;;;;12.13;9.48;;;;;;;;;;5018951;28;20456;-70
2023/05/03 02:17:25;;;;;;;14.48;9.95;;;;;;;;;;5035660;28;20046;-70
2023/05/03 02:19:51;;;;;;;12.60;9.45;;;;;;;;;;5011643;28;20398;-71
2023/05/03 02:22:17;;;;;;;14.10;11.70;;;;;;;;;;5019383;28;20141;-71
2023/05/03 02:24:42;;;;;;;13.15;10.82;;;;;;;;;;5021094;28;20068;-71
2023/05/03 02:27:08;;;;;;;14.27;10.10;;;;;;;;;;5011296;28;20038;-72
2023/05/03 02:29:34;;;;;;;13.80;11.18;;;;;;;;;;5011996;28;20064;-71
2023/05/03 02:32:04;;;;;;;19.80;13.43;;;;;;;;;;5015791;28;20481;-70
2023/05/03 02:34:31;;;;;;;20.08;13.57;;;;;;;;;;5017682;28;20934;-71
2023/05/03 02:36:57;;;;;;;21.02;13.98;;;;;;;;;;5037457;28;20061;-71
2023/05/03 02:39:23;;;;;;;22.10;12.93;;;;;;;;;;5020734;28;20041;-70
2023/05/03 02:41:49;;;;;;;15.25;11.25;;;;;;;;;;5037189;28;20045;-71
2023/05/03 02:44:15;;;;;;;13.13;9.63;;;;;;;;;;5003646;28;20463;-71
2023/05/03 02:46:41;;;;;;;11.30;7.88;;;;;;;;;;5033629;28;20049;-71
2023/05/03 02:49:07;;;;;;;11.07;8.35;;;;;;;;;;5036954;28;20267;-71
2023/05/03 02:51:32;;;;;;;8.98;7.28;;;;;;;;;;5011420;28;20060;-70
2023/05/03 02:53:58;;;;;;;10.10;8.32;;;;;;;;;;5019997;28;20045;-70
2023/05/03 02:56:27;;;;;;;10.05;8.13;;;;;;;;;;5019735;28;20556;-71
2023/05/03 02:58:53;;;;;;;10.65;8.75;;;;;;;;;;5034669;28;20037;-71
2023/05/03 03:01:21;;;;;;;11.15;8.63;;;;;;;;;;5017634;28;20149;-71
2023/05/03 03:03:46;;;;;;;9.15;8.13;;;;;;;;;;5020240;28;20104;-71
2023/05/03 03:06:13;;;;;;;9.73;8.05;;;;;;;;;;5036648;28;20046;-71
2023/05/03 03:08:38;;;;;;;11.05;8.20;;;;;;;;;;5032338;28;20052;-71
2023/05/03 03:11:05;;;;;;;12.70;9.02;;;;;;;;;;5020030;28;20672;-71
2023/05/03 03:13:32;;;;;;;11.57;9.15;;;;;;;;;;5026552;28;20045;-71
2023/05/03 03:15:58;;;;;;;14.80;9.73;;;;;;;;;;5019311;28;20521;-71
2023/05/03 03:18:23;;;;;;;11.88;9.48;;;;;;;;;;5007328;28;20049;-71
2023/05/03 03:20:49;;;;;;;12.93;9.32;;;;;;;;;;5019766;28;20048;-71
2023/05/03 03:23:15;;;;;;;11.20;8.98;;;;;;;;;;5012497;28;20038;-71
2023/05/03 03:25:41;;;;;;;13.57;10.88;;;;;;;;;;5018243;28;20034;-71
2023/05/03 03:28:07;;;;;;;13.43;9.98;;;;;;;;;;5019271;28;20046;-71
2023/05/03 03:30:33;;;;;;;14.30;11.65;;;;;;;;;;5036316;28;20418;-71
2023/05/03 03:33:10;;;;;;;16.85;11.07;;;;;;;;;;5016079;28;20060;-72
2023/05/03 03:35:38;;;;;;;17.13;11.27;;;;;;;;;;5009300;28;20042;-72
2023/05/03 03:38:05;;;;;;;13.70;10.43;;;;;;;;;;5036231;28;20125;-72
2023/05/03 03:40:33;;;;;;;14.60;10.50;;;;;;;;;;5013967;28;20525;-72
2023/05/03 03:42:58;;;;;;;14.25;10.32;;;;;;;;;;5035360;28;20564;-72
2023/05/03 03:45:24;;;;;;;15.93;11.15;;;;;;;;;;5033999;28;20128;-71
2023/05/03 03:47:51;;;;;;;16.70;10.57;;;;;;;;;;5032260;28;20123;-71
2023/05/03 03:50:18;;;;;;;13.98;10.23;;;;;;;;;;5035146;28;20056;-71
2023/05/03 03:52:43;;;;;;;13.85;10.07;;;;;;;;;;5032486;28;20053;-71
2023/05/03 03:55:10;;;;;;;13.10;10.10;;;;;;;;;;5013943;28;20060;-71
2023/05/03 03:57:36;;;;;;;12.32;9.48;;;;;;;;;;5010276;28;20120;-71
2023/05/03 04:00:09;;;;;;;14.43;9.45;;;;;;;;;;5033931;28;20056;-72
2023/05/03 04:02:37;;;;;;;13.77;9.70;;;;;;;;;;5016591;28;20561;-72
2023/05/03 04:05:07;;;;;;;12.50;9.23;;;;;;;;;;5033730;28;20050;-73
2023/05/03 04:07:33;;;;;;;16.63;10.73;;;;;;;;;;5012897;28;20944;-72
2023/05/03 04:09:59;;;;;;;12.68;9.82;;;;;;;;;;5019175;28;20559;-72
2023/05/03 04:12:24;;;;;;;16.30;10.82;;;;;;;;;;5016358;28;20057;-72
2023/05/03 04:14:50;;;;;;;15.38;11.25;;;;;;;;;;5010673;28;20091;-72
2023/05/03 04:17:16;;;;;;;16.83;11.02;;;;;;;;;;5032889;28;20046;-72
2023/05/03 04:19:42;;;;;;;15.30;11.55;;;;;;;;;;4992240;28;20041;-72
2023/05/03 04:22:08;;;;;;;19.20;11.63;;;;;;;;;;5017636;28;20320;-71
2023/05/03 04:24:38;;;;;;;17.33;11.45;;;;;;;;;;5014764;28;20529;-71
2023/05/03 04:27:04;;;;;;;15.85;10.38;;;;;;;;;;5031809;28;20038;-71
2023/05/03 04:29:32;;;;;;;14.77;10.98;;;;;;;;;;5024528;28;20409;-71
2023/05/03 04:32:01;;;;;;;18.35;9.77;;;;;;;;;;5027506;28;20041;-71
2023/05/03 04:34:29;;;;;;;19.58;10.02;;;;;;;;;;5016415;28;20040;-71
2023/05/03 04:36:54;;;;;;;13.82;10.50;;;;;;;;;;5027435;28;20041;-71
2023/05/03 04:39:21;;;;;;;19.52;10.65;;;;;;;;;;5029099;28;20040;-72
2023/05/03 04:41:47;;;;;;;15.07;10.60;;;;;;;;;;5030051;28;20054;-71
2023/05/03 04:44:13;;;;;;;13.45;9.13;;;;;;;;;;5031136;28;20561;-71
2023/05/03 04:46:39;;;;;;;15.35;9.05;;;;;;;;;;5029661;28;20575;-71
2023/05/03 04:49:05;;;;;;;12.57;9.50;;;;;;;;;;5034580;28;20060;-71
2023/05/03 04:51:31;;;;;;;11.75;9.00;;;;;;;;;;5011977;28;20041;-71
2023/05/03 04:53:58;;;;;;;13.90;9.48;;;;;;;;;;5031403;28;20084;-72
2023/05/03 04:56:26;;;;;;;13.63;9.85;;;;;;;;;;5034356;28;20117;-71
2023/05/03 04:58:59;;;;;;;13.05;10.13;;;;;;;;;;5014936;28;20037;-72
2023/05/03 05:01:26;;;;;;;14.85;9.52;;;;;;;;;;5023653;28;20038;-71
2023/05/03 05:03:56;;;;;;;10.75;8.30;;;;;;;;;;5015632;28;20041;-70
2023/05/03 05:06:28;;;;;;;11.63;9.00;;;;;;;;;;5010277;28;20057;-70
2023/05/03 05:08:54;;;;;;;11.63;9.27;;;;;;;;;;5032963;28;20091;-70
2023/05/03 05:11:21;;;;;;;14.93;9.13;;;;;;;;;;5012192;28;20033;-71
2023/05/03 05:13:47;;;;;;;10.07;8.73;;;;;;;;;;5033373;28;21012;-72
2023/05/03 05:16:12;;;;;;;13.40;8.82;;;;;;;;;;5019302;28;20109;-70
2023/05/03 05:18:41;;;;;;;12.00;8.15;;;;;;;;;;5031647;28;20134;-70
2023/05/03 05:21:09;;;;;;;11.02;8.77;;;;;;;;;;5015142;28;20034;-71
2023/05/03 05:23:36;;;;;;;10.07;7.72;;;;;;;;;;5015453;28;20051;-70
2023/05/03 05:26:03;;;;;;;9.45;7.65;;;;;;;;;;5036726;28;20111;-71
2023/05/03 05:28:31;;;;;;;19.27;8.75;;;;;;;;;;4998461;28;20052;-71
2023/05/03 05:30:56;;;;;;;8.52;7.57;;;;;;;;;;5017960;28;20053;-70
2023/05/03 05:33:23;;;;;;;10.02;7.47;;;;;;;;;;5029327;28;20049;-70
2023/05/03 05:35:49;;;;;;;11.70;8.10;;;;;;;;;;5012432;28;20052;-71
2023/05/03 05:38:17;;;;;;;15.77;7.90;;;;;;;;;;5015695;28;20049;-70
2023/05/03 05:40:43;;;;;;;11.20;7.60;;;;;;;;;;5021953;28;20048;-71
2023/05/03 05:43:09;;;;;;;12.13;8.10;;;;;;;;;;5036810;28;20045;-73
2023/05/03 05:45:37;;;;;;;13.20;10.10;;;;;;;;;;5021564;28;20607;-69
2023/05/03 05:48:04;;;;;;;12.00;8.98;;;;;;;;;;5020671;28;20048;-70
2023/05/03 05:50:30;;;;;;;11.45;9.25;;;;;;;;;;5020905;28;20102;-70
2023/05/03 05:53:00;;;;;;;14.40;8.48;;;;;;;;;;5033956;28;20051;-71
2023/05/03 05:55:29;;;;;;;9.82;8.00;;;;;;;;;;5019368;28;20516;-71
2023/05/03 05:57:55;;;;;;;9.45;7.90;;;;;;;;;;5035024;28;20045;-71
2023/05/03 06:00:25;;;;;;;10.57;8.07;;;;;;;;;;5037315;28;20819;-71
2023/05/03 06:02:51;;;;;;;13.75;8.85;;;;;;;;;;5016704;28;20046;-71
2023/05/03 06:05:19;;;;;;;13.50;10.15;;;;;;;;;;5036791;28;20358;-71
2023/05/03 06:07:44;;;;;;;11.23;8.90;;;;;;;;;;5019855;28;20750;-69
2023/05/03 06:10:10;;;;;;;14.07;10.10;;;;;;;;;;5033305;28;20065;-70
2023/05/03 06:12:38;;;;;;;16.05;9.93;;;;;;;;;;5037830;28;20049;-71
2023/05/03 06:15:09;;;;;;;15.30;10.27;;;;;;;;;;5036111;28;20046;-71
2023/05/03 06:17:36;;;;;;;13.65;9.85;;;;;;;;;;5020895;28;20125;-70
2023/05/03 06:20:03;;;;;;;14.38;9.65;;;;;;;;;;5036446;28;20132;-70
2023/05/03 06:22:28;;;;;;;15.70;9.43;;;;;;;;;;5019944;28;20037;-70
2023/05/03 06:24:54;;;;;;;12.95;9.10;;;;;;;;;;5019810;28;20091;-69
2023/05/03 06:27:20;;;;;;;15.32;10.27;;;;;;;;;;5018031;28;20048;-71
2023/05/03 06:29:49;;;;;;;13.75;10.38;;;;;;;;;;5028600;28;20468;-72
2023/05/03 06:32:15;;;;;;;15.50;9.77;;;;;;;;;;5015584;28;20128;-72
2023/05/03 06:34:40;;;;;;;16.92;9.85;;;;;;;;;;5036481;28;21041;-71
2023/05/03 06:37:06;;;;;;;17.33;9.75;;;;;;;;;;5020119;28;20136;-73
2023/05/03 06:39:31;;;;;;;14.23;9.30;;;;;;;;;;5019576;28;20449;-72
2023/05/03 06:41:57;;;;;;;15.35;9.90;;;;;;;;;;5036100;28;20061;-69
2023/05/03 06:44:31;;;;;;;13.77;8.88;;;;;;;;;;5036765;28;20096;-69
2023/05/03 06:46:57;;;;;;;13.43;8.45;;;;;;;;;;5036930;28;20132;-70
2023/05/03 06:49:22;;;;;;;19.08;9.57;;;;;;;;;;5019773;28;20049;-73
2023/05/03 06:51:48;;;;;;;14.68;9.23;;;;;;;;;;5019951;28;20053;-72
2023/05/03 06:54:14;;;;;;;20.02;10.43;;;;;;;;;;5035285;28;20174;-68
2023/05/03 06:56:39;;;;;;;21.05;10.95;;;;;;;;;;5013755;28;20521;-72
2023/05/03 06:59:07;;;;;;;20.70;10.27;;;;;;;;;;5017616;28;20046;-72
2023/05/03 07:01:33;;;;;;;16.00;10.20;;;;;;;;;;5016076;28;20053;-73
2023/05/03 07:03:58;;;;;;;18.17;10.43;;;;;;;;;;5012494;28;20049;-72
2023/05/03 07:06:24;;;;;;;14.88;9.10;;;;;;;;;;5020379;28;20106;-73
2023/05/03 07:08:51;;;;;;;14.70;9.50;;;;;;;;;;5020746;28;20085;-73
2023/05/03 07:11:23;;;;;;;13.32;9.02;;;;;;;;;;5015582;28;20147;-72
2023/05/03 07:13:53;;;;;;;14.63;8.80;;;;;;;;;;5018659;28;20053;-73
2023/05/03 07:16:19;;;;;;;15.18;8.25;;;;;;;;;;5017308;28;20698;-73
2023/05/03 07:18:46;;;;;;;12.40;8.60;;;;;;;;;;5020339;28;20245;-74
2023/05/03 07:21:12;;;;;;;12.70;8.32;;;;;;;;;;5020503;28;20053;-71
2023/05/03 07:23:38;;;;;;;13.40;9.20;;;;;;;;;;5020270;28;20083;-71
2023/05/03 07:26:04;;;;;;;11.55;8.40;;;;;;;;;;5035163;28;20073;-71
2023/05/03 07:28:29;;;;;;;10.45;7.97;;;;;;;;;;5016992;28;20042;-71
2023/05/03 07:30:55;;;;;;;13.10;8.93;;;;;;;;;;5020929;28;20746;-72
2023/05/03 07:33:20;;;;;;;9.70;7.93;;;;;;;;;;5019653;28;20589;-73
2023/05/03 07:35:47;;;;;;;12.27;7.75;;;;;;;;;;5015359;28;20044;-74
2023/05/03 07:38:12;;;;;;;11.35;8.18;;;;;;;;;;5016807;28;20046;-73
2023/05/03 07:40:38;;;;;;;9.77;7.22;;;;;;;;;;5019667;28;20076;-72
2023/05/03 07:43:04;;;;;;;10.50;7.75;;;;;;;;;;5020356;28;20049;-74
2023/05/03 07:45:30;;;;;;;11.38;8.15;;;;;;;;;;5034645;28;20068;-72
2023/05/03 07:47:55;;;;;;;10.40;7.82;;;;;;;;;;5013548;28;20049;-72
2023/05/03 07:50:21;;;;;;;10.73;7.80;;;;;;;;;;5013457;28;20054;-74
2023/05/03 07:52:50;;;;;;;12.98;9.25;;;;;;;;;;5017339;28;20053;-72
2023/05/03 07:55:17;;;;;;;11.77;8.48;;;;;;;;;;5019523;28;20041;-72
2023/05/03 07:57:42;;;;;;;13.00;9.75;;;;;;;;;;5020498;28;20049;-74
2023/05/03 08:00:09;;;;;;;13.30;9.40;;;;;;;;;;5019723;28;20054;-72
2023/05/03 08:02:38;;;;;;;18.20;10.38;;;;;;;;;;5019685;28;20049;-73
2023/05/03 08:05:04;;;;;;;14.88;10.57;;;;;;;;;;5019869;28;20045;-73
2023/05/03 08:07:30;;;;;;;12.75;9.38;;;;;;;;;;5018366;28;20056;-72
2023/05/03 08:09:57;;;;;;;13.73;9.75;;;;;;;;;;5019527;28;20402;-72
2023/05/03 08:12:24;;;;;;;14.38;10.13;;;;;;;;;;5014290;28;20666;-74
2023/05/03 08:14:54;;;;;;;13.63;10.18;;;;;;;;;;5018462;28;20057;-74
2023/05/03 08:17:21;;;;;;;13.15;10.10;;;;;;;;;;5016144;28;20091;-75
2023/05/03 08:19:47;;;;;;;14.35;9.63;;;;;;;;;;5020082;28;20136;-74
2023/05/03 08:22:12;;;;;;;12.40;8.70;;;;;;;;;;5016635;28;20145;-74
2023/05/03 08:24:38;;;;;;;12.55;8.93;;;;;;;;;;5020093;28;20060;-73
2023/05/03 08:27:04;;;;;;;12.10;8.98;;;;;;;;;;5019592;28;20057;-74
2023/05/03 08:29:30;;;;;;;9.23;7.80;;;;;;;;;;5019336;28;20132;-73
2023/05/03 08:31:57;;;;;;;10.23;7.70;;;;;;;;;;5018457;28;20180;-72
2023/05/03 08:34:22;;;;;;;12.35;7.57;;;;;;;;;;5011469;28;20415;-72
2023/05/03 08:36:48;;;;;;;10.77;7.90;;;;;;;;;;5018676;28;20494;-73
2023/05/03 08:39:14;;;;;;;11.65;8.00;;;;;;;;;;5018935;28;20113;-71
2023/05/03 08:41:40;;;;;;;9.00;7.68;;;;;;;;;;5020034;28;20081;-72
2023/05/03 08:44:07;;;;;;;10.20;8.52;;;;;;;;;;5010334;28;20140;-73
2023/05/03 08:46:35;;;;;;;10.23;7.55;;;;;;;;;;5013057;28;20095;-73
2023/05/03 08:49:02;;;;;;;9.88;7.75;;;;;;;;;;5011017;28;20046;-72
2023/05/03 08:51:27;;;;;;;10.60;8.45;;;;;;;;;;5009870;28;20044;-72
2023/05/03 08:53:53;;;;;;;9.85;8.02;;;;;;;;;;5011720;28;20041;-72
2023/05/03 08:56:40;;;;;;;9.23;7.65;;;;;;;;;;5017304;28;20049;-74
2023/05/03 08:59:08;;;;;;;9.95;8.70;;;;;;;;;;5019977;28;20124;-71
2023/05/03 09:01:38;;;;;;;11.40;8.02;;;;;;;;;;5018332;28;20156;-71
2023/05/03 09:04:05;;;;;;;8.43;7.10;;;;;;;;;;5009513;28;20042;-73
2023/05/03 09:06:34;;;;;;;10.63;7.75;;;;;;;;;;5016643;28;20053;-72
2023/05/03 09:09:06;;;;;;;9.00;7.03;;;;;;;;;;5004543;28;20191;-72
2023/05/03 09:11:32;;;;;;;10.07;7.65;;;;;;;;;;5018473;28;20053;-72
2023/05/03 09:14:08;;;;;;;9.13;7.50;;;;;;;;;;5013376;28;20554;-72
2023/05/03 09:16:34;;;;;;;8.90;7.80;;;;;;;;;;5017377;28;20057;-72
2023/05/03 09:19:02;;;;;;;10.25;8.23;;;;;;;;;;5019820;28;20076;-71
2023/05/03 09:21:28;;;;;;;9.07;6.97;;;;;;;;;;5018546;28;20056;-71
2023/05/03 09:23:54;;;;;;;9.15;7.63;;;;;;;;;;5019354;28;20869;-72
2023/05/03 09:26:34;;;;;;;9.13;6.85;;;;;;;;;;5019089;28;20041;-71
2023/05/03 09:29:00;;;;;;;9.52;6.03;;;;;;;;;;5018225;28;20037;-72
2023/05/03 09:31:28;;;;;;;7.03;6.07;;;;;;;;;;5017117;28;20073;-69
2023/05/03 09:33:54;;;;;;;8.77;7.68;;;;;;;;;;5016218;28;20104;-72
2023/05/03 09:36:20;;;;;;;10.00;8.15;;;;;;;;;;5019719;28;20060;-72
2023/05/03 09:38:46;;;;;;;10.18;7.90;;;;;;;;;;5014021;28;20037;-73
2023/05/03 09:41:11;;;;;;;8.20;6.97;;;;;;;;;;5022261;28;20048;-71
2023/05/03 09:43:51;;;;;;;9.55;7.85;;;;;;;;;;5023020;28;20053;-72
2023/05/03 09:46:17;;;;;;;9.70;8.32;;;;;;;;;;5023040;28;20041;-72
2023/05/03 09:48:43;;;;;;;11.48;8.02;;;;;;;;;;5021966;28;20053;-72
2023/05/03 09:51:10;;;;;;;11.02;8.50;;;;;;;;;;5022661;28;20118;-72
2023/05/03 09:53:37;;;;;;;9.85;7.07;;;;;;;;;;5022436;28;20869;-72
2023/05/03 09:56:14;;;;;;;8.25;6.72;;;;;;;;;;5023206;28;20064;-74
2023/05/03 09:58:40;;;;;;;6.72;6.03;;;;;;;;;;5021795;28;20137;-71
2023/05/03 10:01:07;;;;;;;7.78;6.85;;;;;;;;;;5020492;28;20045;-71
2023/05/03 10:03:42;;;;;;;8.20;6.93;;;;;;;;;;5015505;28;20069;-74
2023/05/03 10:06:34;;;;;;;7.38;6.63;;;;;;;;;;5022799;28;20056;-72
2023/05/03 10:09:01;;;;;;;;;;;;;;;;;;5015065;28;20072;-72
2023/05/03 10:11:26;;;;;;;8.10;6.90;;;;;;;;;;5033760;28;19921;-71
2023/05/03 10:13:54;;;;;;;10.98;6.97;;;;;;;;;;5016514;28;20167;-70
2023/05/03 10:16:26;;;;;;;8.35;7.15;;;;;;;;;;5038065;28;20103;-71
2023/05/03 10:19:31;;;;;;;8.05;6.40;;;;;;;;;;5022018;28;20043;-72
2023/05/03 10:22:07;;;;;;;7.57;6.03;;;;;;;;;;5033256;28;20060;-71
2023/05/03 10:24:56;;;;;;;10.13;6.93;;;;;;;;;;5013680;28;20057;-75
2023/05/03 10:27:21;;;;;;;7.38;6.38;;;;;;;;;;5021184;28;20045;-71
2023/05/03 10:29:50;;;;;;;7.10;6.22;;;;;;;;;;5022112;28;20064;-72
2023/05/03 10:32:41;;;;;;;7.97;6.03;;;;;;;;;;5020753;28;20494;-71
2023/05/03 10:35:09;;;;;;;7.15;5.85;;;;;;;;;;5021867;28;20445;-71
2023/05/03 10:37:35;;;;;;;6.10;5.38;;;;;;;;;;5015382;28;21149;-70
2023/05/03 10:40:09;;;;;;;11.45;5.35;;;;;;;;;;5015420;28;20041;-72
2023/05/03 10:42:41;;;;;;;6.88;6.13;;;;;;;;;;5021915;28;20045;-71
2023/05/03 10:45:08;;;;;;;6.15;5.55;;;;;;;;;;5018355;28;20099;-71
2023/05/03 10:47:34;;;;;;;8.55;5.90;;;;;;;;;;5021121;28;20053;-71
2023/05/03 10:50:14;;;;;;;7.13;5.90;;;;;;;;;;5021659;28;20053;-72
2023/05/03 10:52:40;;;;;;;5.55;4.97;;;;;;;;;;5021678;28;20083;-72
2023/05/03 10:55:10;;;;;;;5.85;5.25;;;;;;;;;;5021150;28;20414;-73
2023/05/03 10:57:38;;;;;;;6.75;6.05;;;;;;;;;;5013751;28;20065;-71
2023/05/03 11:00:11;;;;;;;6.10;5.50;;;;;;;;;;5022004;28;20514;-71
2023/05/03 11:02:42;;;;;;;5.07;4.57;;;;;;;;;;5021422;28;20045;-70
2023/05/03 11:05:11;;;;;;;6.00;4.80;;;;;;;;;;5021525;28;20050;-74
2023/05/03 11:07:36;;;;;;;5.25;4.05;;;;;;;;;;5019088;28;20462;-72
2023/05/03 11:10:15;;;;;;;5.15;4.03;;;;;;;;;;5021516;28;20053;-73
2023/05/03 11:12:41;;;;;;;5.13;3.95;;;;;;;;;;5020138;28;20053;-72
2023/05/03 11:15:07;;;;;;;4.95;3.20;;;;;;;;;;5013443;28;20645;-72
2023/05/03 11:17:32;;;;;;;5.00;3.97;;;;;;;;;;5016827;28;20057;-72
2023/05/03 11:19:58;;;;;;;5.40;4.10;;;;;;;;;;5021324;28;20054;-71
2023/05/03 11:22:23;;;;;;;3.95;3.20;;;;;;;;;;5021080;28;20049;-74
2023/05/03 11:24:50;;;;;;;3.75;3.22;;;;;;;;;;5021384;28;20057;-72
2023/05/03 11:27:23;;;;;;;4.65;2.80;;;;;;;;;;5019804;28;20099;-71
2023/05/03 11:29:48;;;;;;;3.90;3.47;;;;;;;;;;5012238;28;20084;-73
2023/05/03 11:32:17;;;;;;;4.35;3.90;;;;;;;;;;5019171;28;20068;-73
2023/05/03 11:34:43;;;;;;;5.13;4.63;;;;;;;;;;5020412;28;20077;-73
2023/05/03 11:37:09;;;;;;;4.63;4.22;;;;;;;;;;5016774;28;20065;-72
2023/05/03 11:39:35;;;;;;;4.97;4.28;;;;;;;;;;5015507;28;20045;-74
2023/05/03 11:42:03;;;;;;;4.82;3.70;;;;;;;;;;5019794;28;20048;-73
2023/05/03 11:44:28;;;;;;;4.93;4.43;;;;;;;;;;5020671;28;20052;-74
2023/05/03 11:46:54;;;;;;;5.22;4.60;;;;;;;;;;5020458;28;20041;-72
2023/05/03 11:49:22;;;;;;;5.22;4.25;;;;;;;;;;5018414;28;20045;-74
2023/05/03 11:51:49;;;;;;;4.70;4.03;;;;;;;;;;5013973;28;20045;-75
2023/05/03 11:54:15;;;;;;;4.57;3.90;;;;;;;;;;5020466;28;20036;-74
2023/05/03 11:56:41;;;;;;;7.35;4.93;;;;;;;;;;5012789;28;20056;-72
2023/05/03 11:59:07;;;;;;;4.40;3.92;;;;;;;;;;5018756;28;20033;-73
2023/05/03 12:01:32;;;;;;;4.75;4.32;;;;;;;;;;5012881;28;20045;-74
2023/05/03 12:04:03;;;;;;;4.75;4.28;;;;;;;;;;5019901;28;20445;-74
2023/05/03 12:06:32;;;;;;;6.95;4.43;;;;;;;;;;5017317;28;20950;-72
2023/05/03 12:08:58;;;;;;;5.32;4.82;;;;;;;;;;5019753;28;20096;-73
2023/05/03 12:11:23;;;;;;;6.68;5.32;;;;;;;;;;5011555;28;20053;-72
2023/05/03 12:14:00;;;;;;;5.20;4.78;;;;;;;;;;5010676;28;20052;-70
2023/05/03 12:16:27;;;;;;;5.43;4.93;;;;;;;;;;5011338;28;20049;-72
2023/05/03 12:19:01;;;;;;;5.80;5.15;;;;;;;;;;5009941;28;20033;-72
2023/05/03 12:21:43;;;;;;;4.68;4.20;;;;;;;;;;5007869;28;20445;-72
2023/05/03 12:24:09;;;;;;;6.20;4.80;;;;;;;;;;5009194;28;20060;-73
2023/05/03 12:26:34;;;;;;;5.43;4.53;;;;;;;;;;5010584;28;20045;-73
2023/05/03 12:29:00;;;;;;;5.28;4.82;;;;;;;;;;5010714;28;20080;-73
2023/05/03 12:31:25;;;;;;;4.40;4.00;;;;;;;;;;5012187;28;20076;-73
2023/05/03 12:33:51;;;;;;;4.55;4.15;;;;;;;;;;5018820;28;20045;-72
2023/05/03 12:36:18;;;;;;;5.47;4.57;;;;;;;;;;5016501;28;20048;-72
2023/05/03 12:38:43;;;;;;;9.02;5.28;;;;;;;;;;5017786;28;20539;-73
2023/05/03 12:41:10;;;;;;;6.88;5.00;;;;;;;;;;5019459;28;20056;-73
2023/05/03 12:43:35;;;;;;;5.93;5.25;;;;;;;;;;5018451;28;20056;-73
2023/05/03 12:46:01;;;;;;;5.75;5.25;;;;;;;;;;5016370;28;20045;-72
2023/05/03 12:48:28;;;;;;;5.95;5.18;;;;;;;;;;5019288;28;20033;-74
2023/05/03 12:50:53;;;;;;;5.30;4.80;;;;;;;;;;5032087;28;20049;-73
2023/05/03 12:53:20;;;;;;;7.40;5.70;;;;;;;;;;5016567;28;20058;-73
2023/05/03 12:55:46;;;;;;;8.00;6.20;;;;;;;;;;5010047;28;20050;-74
2023/05/03 12:58:12;;;;;;;7.70;6.18;;;;;;;;;;5014504;28;20046;-72
2023/05/03 13:00:37;;;;;;;7.30;6.57;;;;;;;;;;5015231;28;21012;-74
2023/05/03 13:03:04;;;;;;;8.45;6.65;;;;;;;;;;5013062;28;20139;-73
2023/05/03 13:05:29;;;;;;;8.25;6.35;;;;;;;;;;5018509;28;20061;-73
2023/05/03 13:07:56;;;;;;;8.82;7.40;;;;;;;;;;5010963;28;20065;-71
2023/05/03 13:10:22;;;;;;;8.10;7.10;;;;;;;;;;5022891;28;20518;-74
2023/05/03 13:12:47;;;;;;;8.15;6.75;;;;;;;;;;5023113;28;20052;-75
2023/05/03 13:15:13;;;;;;;8.57;7.22;;;;;;;;;;5009092;28;20049;-72
2023/05/03 13:17:39;;;;;;;9.00;7.72;;;;;;;;;;5019215;28;20045;-73
2023/05/03 13:20:05;;;;;;;9.13;7.93;;;;;;;;;;5017248;28;20610;-73
2023/05/03 13:22:31;;;;;;;9.57;8.57;;;;;;;;;;5023287;28;20090;-73
2023/05/03 13:24:56;;;;;;;13.07;8.25;;;;;;;;;;5023472;28;20037;-70
2023/05/03 13:27:22;;;;;;;10.98;9.00;;;;;;;;;;5015322;28;20033;-72
2023/05/03 13:29:47;;;;;;;11.63;8.52;;;;;;;;;;5022480;28;20603;-72
2023/05/03 13:32:13;;;;;;;9.70;7.65;;;;;;;;;;5021945;28;20110;-72
2023/05/03 13:34:38;;;;;;;8.85;7.75;;;;;;;;;;5021200;28;20531;-73
2023/05/03 13:37:04;;;;;;;11.82;7.45;;;;;;;;;;5020609;28;20239;-72
2023/05/03 13:39:29;;;;;;;6.90;6.07;;;;;;;;;;5021995;28;20571;-71
2023/05/03 13:41:55;;;;;;;8.25;6.90;;;;;;;;;;5022983;28;20052;-71
2023/05/03 13:44:24;;;;;;;8.85;6.55;;;;;;;;;;5023193;28;20045;-71
2023/05/03 13:46:49;;;;;;;8.18;6.63;;;;;;;;;;5022721;28;20148;-72
2023/05/03 13:49:15;;;;;;;9.88;6.40;;;;;;;;;;5021042;28;20055;-71
2023/05/03 13:51:40;;;;;;;10.15;6.40;;;;;;;;;;5020742;28;20140;-72
2023/05/03 13:54:06;;;;;;;6.57;5.93;;;;;;;;;;5012356;28;20049;-71
2023/05/03 13:56:33;;;;;;;6.82;5.95;;;;;;;;;;5021007;28;20391;-70
2023/05/03 13:58:58;;;;;;;6.85;5.70;;;;;;;;;;5019946;28;20127;-72
2023/05/03 14:01:25;;;;;;;8.20;6.13;;;;;;;;;;5018542;28;20053;-72
2023/05/03 14:03:51;;;;;;;7.07;5.65;;;;;;;;;;5021796;28;20049;-71
2023/05/03 14:06:19;;;;;;;7.28;5.57;;;;;;;;;;5037528;28;20085;-72
2023/05/03 14:08:44;;;;;;;5.60;4.93;;;;;;;;;;5018385;28;20056;-71
2023/05/03 14:11:16;;;;;;;6.15;5.05;;;;;;;;;;5019327;28;20041;-71
2023/05/03 14:13:42;;;;;;;6.28;5.30;;;;;;;;;;5021279;28;20564;-71
2023/05/03 14:16:22;;;;;;;5.75;5.03;;;;;;;;;;5021257;28;20053;-70
2023/05/03 14:18:49;;;;;;;5.63;4.90;;;;;;;;;;5022128;28;20072;-69
2023/05/03 14:21:17;;;;;;;7.75;5.15;;;;;;;;;;5020749;28;20043;-73
2023/05/03 14:23:46;;;;;;;5.18;4.68;;;;;;;;;;5018427;28;20049;-71
2023/05/03 14:26:12;;;;;;;5.22;4.72;;;;;;;;;;5014069;28;20037;-71
2023/05/03 14:28:38;;;;;;;6.72;5.82;;;;;;;;;;5020799;28;20156;-71
2023/05/03 14:31:05;;;;;;;5.97;5.38;;;;;;;;;;5036278;28;20117;-72
2023/05/03 14:33:31;;;;;;;6.13;4.88;;;;;;;;;;5018234;28;20164;-73